Time;durP1;ratioP1;P1;durP2;ratioP2;P2;SDS_P1;SDS_P2;PMS_P1;PMS_P2;Temp;Humidity;BMP_temperature;BMP_pressure;BME280_temperature;BME280_humidity;BME280_pressure;Samples;Min_cycle;Max_cycle;Signal;HPM_P1;HPM_P2
2023/07/13 00:00:10;;;;;;;;;2.00;2.00;;;;;21.39;43.42;101457.19;5012018;28;46464;-46
2023/07/13 00:02:36;;;;;;;;;5.33;2.00;;;;;21.39;43.98;101451.78;5020559;28;45437;-45
2023/07/13 00:05:01;;;;;;;;;4.00;2.00;;;;;21.37;43.66;101451.06;5019527;28;68077;-46
2023/07/13 00:07:27;;;;;;;;;3.00;1.00;;;;;21.35;43.74;101454.91;5027476;28;45850;-46
2023/07/13 00:09:52;;;;;;;;;1.00;1.00;;;;;21.30;43.65;101453.44;5020067;28;65374;-47
2023/07/13 00:12:29;;;;;;;;;2.00;1.00;;;;;21.30;43.58;101457.97;5019184;28;65248;-45
2023/07/13 00:14:57;;;;;;;;;4.33;2.00;;;;;21.29;43.82;101459.00;5016579;28;47179;-47
2023/07/13 00:17:23;;;;;;;;;2.33;2.33;;;;;21.27;43.76;101464.50;5019386;28;45449;-46
2023/07/13 00:19:48;;;;;;;;;4.00;2.00;;;;;21.25;43.39;101461.09;5018854;28;46362;-45
2023/07/13 00:22:14;;;;;;;;;4.33;2.00;;;;;21.25;43.99;101471.91;5018621;28;45233;-45
2023/07/13 00:24:41;;;;;;;;;2.00;2.00;;;;;21.23;44.22;101467.63;5019308;28;45461;-45
2023/07/13 00:27:10;;;;;;;;;1.00;1.00;;;;;21.22;43.55;101476.72;5019505;28;45419;-52
2023/07/13 00:29:37;;;;;;;;;3.00;2.00;;;;;21.25;43.63;101465.63;5018234;28;48254;-44
2023/07/13 00:32:03;;;;;;;;;2.00;2.00;;;;;21.29;44.44;101459.84;5016554;28;45382;-44
2023/07/13 00:34:29;;;;;;;;;2.33;2.33;;;;;21.36;43.58;101465.59;5018816;28;45447;-45
2023/07/13 00:36:54;;;;;;;;;3.00;1.67;;;;;21.39;43.78;101465.31;5010308;28;45229;-43
2023/07/13 00:39:20;;;;;;;;;5.00;3.33;;;;;21.41;44.11;101467.91;5017808;28;75493;-44
2023/07/13 00:41:46;;;;;;;;;5.00;2.33;;;;;21.45;43.68;101469.34;5012690;28;45333;-45
2023/07/13 00:44:15;;;;;;;;;2.00;2.00;;;;;21.41;43.53;101479.59;5018089;28;45486;-46
2023/07/13 00:46:41;;;;;;;;;1.67;1.67;;;;;21.39;43.94;101480.69;5015405;28;45380;-45
2023/07/13 00:49:08;;;;;;;;;2.00;2.00;;;;;21.36;43.90;101476.41;5017287;28;73644;-45
2023/07/13 00:51:44;;;;;;;;;2.00;2.00;;;;;21.34;44.06;101474.81;5018888;28;45685;-48
2023/07/13 00:54:13;;;;;;;;;1.00;1.00;;;;;21.35;44.62;101474.69;5018775;28;45408;-45
2023/07/13 00:56:39;;;;;;;;;5.00;2.00;;;;;21.37;44.05;101477.25;5017148;28;45584;-45
2023/07/13 00:59:06;;;;;;;;;2.00;2.00;;;;;21.36;44.49;101486.38;5016712;28;45547;-52
2023/07/13 01:01:32;;;;;;;;;3.33;2.33;;;;;21.34;44.01;101482.94;5009020;28;45415;-45
2023/07/13 01:03:57;;;;;;;;;3.00;1.00;;;;;21.32;44.48;101481.22;5018297;28;45236;-45
2023/07/13 01:06:23;;;;;;;;;2.00;2.00;;;;;21.30;44.46;101488.63;5017814;28;66708;-46
2023/07/13 01:08:48;;;;;;;;;3.67;2.00;;;;;21.31;44.73;101484.94;5017645;28;63084;-46
2023/07/13 01:11:18;;;;;;;;;2.00;2.00;;;;;21.32;44.49;101500.16;5019112;28;45367;-46
2023/07/13 01:13:43;;;;;;;;;2.00;2.00;;;;;21.35;44.75;101493.63;5018286;28;45458;-45
2023/07/13 01:16:18;;;;;;;;;1.00;1.00;;;;;21.37;44.57;101486.25;5017091;28;69400;-46
2023/07/13 01:18:43;;;;;;;;;4.33;2.67;;;;;21.38;44.97;101492.50;5018216;28;45526;-46
2023/07/13 01:21:08;;;;;;;;;2.00;2.00;;;;;21.36;44.89;101489.94;5015508;28;70445;-46
2023/07/13 01:23:34;;;;;;;;;2.00;2.00;;;;;21.36;44.97;101487.22;5018847;28;45388;-46
2023/07/13 01:25:59;;;;;;;;;4.00;2.33;;;;;21.38;44.49;101495.22;5017400;28;65441;-46
2023/07/13 01:28:29;;;;;;;;;2.00;2.00;;;;;21.39;45.26;101492.38;5017898;28;49766;-45
2023/07/13 01:30:56;;;;;;;;;4.00;2.33;;;;;21.40;44.38;101494.09;5016615;28;45785;-45
2023/07/13 01:33:22;;;;;;;;;2.00;2.00;;;;;21.38;45.06;101500.63;5017851;28;45395;-45
2023/07/13 01:35:47;;;;;;;;;3.00;2.00;;;;;21.36;45.01;101505.31;5015280;28;52543;-45
2023/07/13 01:38:19;;;;;;;;;2.33;1.00;;;;;21.31;44.93;101505.69;5017447;28;76756;-46
2023/07/13 01:40:44;;;;;;;;;1.00;1.00;;;;;21.25;44.94;101506.22;5018973;28;45525;-46
2023/07/13 01:43:10;;;;;;;;;2.00;2.00;;;;;21.19;45.45;101504.91;5016705;28;45745;-46
2023/07/13 01:45:36;;;;;;;;;2.33;2.33;;;;;21.15;45.13;101498.03;5021172;28;45484;-44
2023/07/13 01:48:01;;;;;;;;;2.00;2.00;;;;;21.11;44.81;101505.53;5020062;28;68300;-50
2023/07/13 01:50:27;;;;;;;;;1.00;1.00;;;;;21.10;45.08;101506.50;5023964;28;45379;-47
2023/07/13 01:52:53;;;;;;;;;3.00;1.00;;;;;21.08;45.16;101513.91;5019823;28;68227;-48
2023/07/13 01:55:18;;;;;;;;;3.00;1.67;;;;;21.04;44.85;101500.78;5022610;28;45343;-49
2023/07/13 01:57:44;;;;;;;;;3.33;1.33;;;;;21.00;45.31;101502.84;5022551;28;45891;-46
2023/07/13 02:00:10;;;;;;;;;2.00;2.00;;;;;20.99;44.93;101504.72;5013611;28;45486;-45
2023/07/13 02:02:36;;;;;;;;;3.33;2.00;;;;;20.94;45.06;101498.84;5022371;28;45439;-46
2023/07/13 02:05:01;;;;;;;;;2.00;2.00;;;;;20.89;44.68;101500.22;5021476;28;67455;-46
2023/07/13 02:07:26;;;;;;;;;1.00;1.00;;;;;20.88;45.11;101506.59;5028688;28;74541;-45
2023/07/13 02:09:52;;;;;;;;;8.00;2.00;;;;;20.86;44.92;101506.72;5021280;28;73197;-49
2023/07/13 02:12:17;;;;;;;;;1.67;1.67;;;;;20.84;45.26;101516.81;5021556;28;57123;-46
2023/07/13 02:14:42;;;;;;;;;2.00;2.00;;;;;20.81;45.20;101517.06;5021785;28;63816;-45
2023/07/13 02:17:09;;;;;;;;;1.00;1.00;;;;;20.80;45.70;101518.03;5021558;28;67216;-47
2023/07/13 02:19:35;;;;;;;;;1.00;1.00;;;;;20.80;45.58;101508.06;5020964;28;45363;-46
2023/07/13 02:22:00;;;;;;;;;1.00;1.00;;;;;20.82;45.27;101510.69;5020485;28;65592;-45
2023/07/13 02:24:25;;;;;;;;;1.67;1.67;;;;;20.84;45.43;101497.88;5017708;28;65798;-46
2023/07/13 02:26:51;;;;;;;;;2.67;2.00;;;;;20.82;45.00;101510.69;5016233;28;46092;-47
2023/07/13 02:29:16;;;;;;;;;3.33;2.00;;;;;20.79;45.23;101500.97;5022278;28;45431;-45
2023/07/13 02:31:42;;;;;;;;;1.67;1.67;;;;;20.75;45.34;101502.19;5021372;28;45568;-46
2023/07/13 02:34:07;;;;;;;;;2.67;2.00;;;;;20.74;45.75;101505.91;5021064;28;45535;-46
2023/07/13 02:36:33;;;;;;;;;1.00;1.00;;;;;20.70;45.65;101506.25;5020209;28;73608;-46
2023/07/13 02:39:01;;;;;;;;;1.00;1.00;;;;;20.67;45.72;101507.34;5021162;28;71352;-44
2023/07/13 02:41:26;;;;;;;;;1.00;1.00;;;;;20.64;45.51;101502.19;5018257;28;46486;-47
2023/07/13 02:43:52;;;;;;;;;1.00;1.00;;;;;20.62;45.33;101496.06;5015540;28;70347;-47
2023/07/13 02:46:19;;;;;;;;;1.00;1.00;;;;;20.62;45.91;101504.16;5012707;28;45836;-46
2023/07/13 02:48:45;;;;;;;;;2.67;1.00;;;;;20.65;45.33;101501.22;5019776;28;45530;-46
2023/07/13 02:51:10;;;;;;;;;2.67;1.00;;;;;20.69;45.44;101508.09;5019876;28;46329;-46
2023/07/13 02:53:36;;;;;;;;;1.00;0.67;;;;;20.67;44.97;101502.78;5020278;28;45329;-46
2023/07/13 02:56:02;;;;;;;;;2.33;1.00;;;;;20.65;45.39;101496.66;5019981;28;46898;-46
2023/07/13 02:58:27;;;;;;;;;2.33;1.33;;;;;20.64;45.17;101497.66;5021189;28;45345;-45
2023/07/13 03:00:52;;;;;;;;;2.00;1.00;;;;;20.66;45.45;101509.19;5014069;28;67574;-45
2023/07/13 03:03:18;;;;;;;;;1.00;1.00;;;;;20.65;45.51;101499.38;5017946;28;70299;-46
2023/07/13 03:05:49;;;;;;;;;1.00;1.00;;;;;20.65;45.35;101504.78;5017243;28;73849;-46
2023/07/13 03:08:14;;;;;;;;;4.00;1.00;;;;;20.64;45.23;101503.06;5018297;28;45583;-46
2023/07/13 03:10:40;;;;;;;;;1.00;1.00;;;;;20.60;44.87;101515.09;5019198;28;45215;-46
2023/07/13 03:13:06;;;;;;;;;1.00;1.00;;;;;20.59;45.26;101518.78;5020229;28;45620;-46
2023/07/13 03:15:31;;;;;;;;;3.33;2.00;;;;;20.58;45.19;101519.75;5014724;28;45605;-47
2023/07/13 03:17:56;;;;;;;;;2.00;2.00;;;;;20.57;44.97;101515.38;5016150;28;73126;-46
2023/07/13 03:20:22;;;;;;;;;0.00;0.00;;;;;20.55;45.45;101516.47;5003711;28;45483;-46
2023/07/13 03:22:47;;;;;;;;;1.00;1.00;;;;;20.52;45.26;101516.69;5019875;28;45513;-46
2023/07/13 03:25:13;;;;;;;;;0.00;0.00;;;;;20.49;45.02;101531.31;5021067;28;45506;-46
2023/07/13 03:27:38;;;;;;;;;1.00;1.00;;;;;20.47;45.00;101528.75;5018380;28;71648;-45
2023/07/13 03:30:07;;;;;;;;;3.00;1.00;;;;;20.46;44.98;101529.72;5019802;28;64767;-49
2023/07/13 03:32:33;;;;;;;;;1.67;1.67;;;;;20.45;44.91;101527.16;5021294;28;45584;-46
2023/07/13 03:34:58;;;;;;;;;0.67;0.67;;;;;20.42;44.94;101533.66;5017208;28;74606;-46
2023/07/13 03:37:24;;;;;;;;;1.00;1.00;;;;;20.40;45.09;101532.06;5017809;28;68819;-46
2023/07/13 03:39:49;;;;;;;;;2.00;0.67;;;;;20.39;45.37;101536.63;5019420;28;45312;-48
2023/07/13 03:42:15;;;;;;;;;5.00;2.00;;;;;20.34;45.59;101533.41;5019594;28;45471;-45
2023/07/13 03:44:45;;;;;;;;;2.33;1.00;;;;;20.33;45.25;101537.09;5018649;28;74584;-49
2023/07/13 03:47:11;;;;;;;;;1.00;1.00;;;;;20.30;45.13;101532.78;5017089;28;45444;-48
2023/07/13 03:49:36;;;;;;;;;1.00;1.00;;;;;20.28;45.50;101533.91;5009747;28;45517;-48
2023/07/13 03:52:02;;;;;;;;;1.67;1.67;;;;;20.25;45.84;101526.06;5017751;28;46663;-48
2023/07/13 03:54:27;;;;;;;;;1.00;1.00;;;;;20.23;46.40;101536.09;5016591;28;45989;-46
2023/07/13 03:56:52;;;;;;;;;2.33;1.00;;;;;20.27;46.22;101542.97;5013043;28;72312;-48
2023/07/13 03:59:18;;;;;;;;;1.33;1.00;;;;;20.29;46.31;101533.78;5019491;28;45600;-47
2023/07/13 04:01:44;;;;;;;;;0.00;0.00;;;;;20.33;46.62;101537.94;5020900;28;45448;-49
2023/07/13 04:04:09;;;;;;;;;1.00;1.00;;;;;20.32;46.90;101544.34;5020014;28;46225;-46
2023/07/13 04:06:34;;;;;;;;;0.67;0.00;;;;;20.32;46.90;101541.66;5018871;28;45478;-50
2023/07/13 04:09:01;;;;;;;;;0.33;0.33;;;;;20.33;46.46;101542.50;5020247;28;56864;-49
2023/07/13 04:11:28;;;;;;;;;2.00;2.00;;;;;20.29;46.73;101555.38;5021318;28;45492;-49
2023/07/13 04:13:54;;;;;;;;;3.00;2.00;;;;;20.28;46.63;101552.81;5021471;28;46396;-49
2023/07/13 04:16:20;;;;;;;;;2.00;2.00;;;;;20.25;47.11;101550.38;5021336;28;45723;-50
2023/07/13 04:18:46;;;;;;;;;1.33;1.33;;;;;20.23;47.54;101555.88;5021507;28;45341;-50
2023/07/13 04:21:13;;;;;;;;;2.00;2.00;;;;;20.27;47.17;101557.38;5021667;28;45440;-50
2023/07/13 04:23:38;;;;;;;;;2.33;1.00;;;;;20.27;47.33;101564.59;5019250;28;46275;-50
2023/07/13 04:26:04;;;;;;;;;1.00;1.00;;;;;20.27;47.13;101564.59;5020489;28;45340;-49
2023/07/13 04:28:30;;;;;;;;;2.00;2.00;;;;;20.21;47.04;101567.78;5019497;28;45411;-47
2023/07/13 04:30:55;;;;;;;;;1.67;1.67;;;;;20.17;47.80;101570.72;4991495;28;45556;-46
2023/07/13 04:33:23;;;;;;;;;1.00;1.00;;;;;20.17;47.49;101572.56;5019005;28;46053;-49
2023/07/13 04:35:56;;;;;;;;;2.00;2.00;;;;;20.17;47.58;101576.13;5020261;28;45529;-48
2023/07/13 04:38:22;;;;;;;;;1.00;1.00;;;;;20.19;47.82;101570.59;5020609;28;45340;-48
2023/07/13 04:40:47;;;;;;;;;4.00;2.00;;;;;20.22;48.29;101569.50;5020463;28;45388;-48
2023/07/13 04:43:13;;;;;;;;;3.00;2.00;;;;;20.25;47.73;101570.13;5020248;28;45523;-48
2023/07/13 04:45:38;;;;;;;;;2.67;1.67;;;;;20.27;47.77;101570.88;5019379;28;73126;-46
2023/07/13 04:48:04;;;;;;;;;4.00;3.00;;;;;20.31;48.60;101566.06;5019214;28;68269;-49
2023/07/13 04:50:29;;;;;;;;;1.33;1.33;;;;;20.30;48.45;101570.63;5020371;28;45317;-46
2023/07/13 04:52:54;;;;;;;;;2.00;2.00;;;;;20.30;47.86;101567.91;5018954;28;75654;-49
2023/07/13 04:55:20;;;;;;;;;5.00;3.00;;;;;20.28;47.64;101572.56;5019266;28;70314;-44
2023/07/13 04:57:46;;;;;;;;;5.67;4.00;;;;;20.23;48.13;101573.91;5020201;28;45405;-49
2023/07/13 05:00:12;;;;;;;;;6.00;5.00;;;;;20.24;48.05;101576.50;5020292;28;45319;-48
2023/07/13 05:02:38;;;;;;;;;6.67;5.33;;;;;20.24;48.10;101575.66;5002046;28;46193;-47
2023/07/13 05:05:04;;;;;;;;;5.00;4.00;;;;;20.25;48.92;101590.88;5019539;28;45383;-48
2023/07/13 05:07:30;;;;;;;;;4.00;3.00;;;;;20.26;48.68;101579.94;5020008;28;45486;-46
2023/07/13 05:09:55;;;;;;;;;5.00;3.00;;;;;20.24;48.76;101578.34;5020144;28;45312;-45
2023/07/13 05:12:20;;;;;;;;;7.00;2.67;;;;;20.26;48.84;101574.53;5019868;28;46248;-47
2023/07/13 05:14:46;;;;;;;;;2.00;2.00;;;;;20.29;49.34;101590.50;5019069;28;69696;-46
2023/07/13 05:17:11;;;;;;;;;2.00;2.00;;;;;20.34;49.15;101584.75;5019308;28;65277;-45
2023/07/13 05:19:36;;;;;;;;;2.00;2.00;;;;;20.38;49.16;101580.81;5023305;28;45506;-46
2023/07/13 05:22:03;;;;;;;;;3.00;1.00;;;;;20.41;49.06;101582.41;5023307;28;46317;-44
2023/07/13 05:24:29;;;;;;;;;2.00;2.00;;;;;20.45;49.14;101583.88;5023658;28;45411;-47
2023/07/13 05:26:54;;;;;;;;;1.00;1.00;;;;;20.48;48.94;101589.91;5023366;28;45906;-46
2023/07/13 05:29:21;;;;;;;;;1.00;1.00;;;;;20.55;48.56;101598.38;5023422;28;45494;-49
2023/07/13 05:31:46;;;;;;;;;1.00;1.00;;;;;20.59;48.78;101586.34;5023238;28;45356;-45
2023/07/13 05:34:11;;;;;;;;;3.00;3.00;;;;;20.61;48.54;101591.63;5021479;28;50578;-46
2023/07/13 05:36:37;;;;;;;;;4.67;2.67;;;;;20.57;48.68;101588.31;5022616;28;56209;-45
2023/07/13 05:39:03;;;;;;;;;1.00;1.00;;;;;20.59;48.30;101593.59;5022394;28;68587;-47
2023/07/13 05:41:28;;;;;;;;;1.33;1.33;;;;;20.56;48.38;101592.00;5022849;28;46185;-45
2023/07/13 05:43:54;;;;;;;;;1.67;1.67;;;;;20.54;48.89;101593.94;5021997;28;71407;-45
2023/07/13 05:46:19;;;;;;;;;2.00;2.00;;;;;20.56;48.87;101604.63;5021254;28;60574;-47
2023/07/13 05:48:44;;;;;;;;;0.67;0.67;;;;;20.53;49.06;101602.19;5020831;28;61424;-46
2023/07/13 05:51:10;;;;;;;;;2.00;2.00;;;;;20.51;48.29;101605.00;5021622;28;45981;-47
2023/07/13 05:53:35;;;;;;;;;5.67;2.00;;;;;20.58;49.01;101602.69;5022066;28;69446;-46
2023/07/13 05:56:01;;;;;;;;;1.67;1.67;;;;;20.73;49.01;101606.00;5022953;28;45284;-49
2023/07/13 05:58:26;;;;;;;;;2.33;2.33;;;;;20.85;48.60;101602.34;5022047;28;69323;-46
2023/07/13 06:00:59;;;;;;;;;4.00;2.00;;;;;21.02;48.47;101605.50;5021872;28;66134;-45
2023/07/13 06:03:25;;;;;;;;;3.67;1.00;;;;;21.15;47.98;101607.06;5021539;28;45700;-46
2023/07/13 06:05:50;;;;;;;;;2.00;2.00;;;;;21.28;47.62;101608.78;5022535;28;45466;-45
2023/07/13 06:08:15;;;;;;;;;1.00;1.00;;;;;21.38;47.46;101612.44;5022676;28;45568;-48
2023/07/13 06:10:40;;;;;;;;;2.00;2.00;;;;;21.43;47.63;101612.91;5021753;28;71722;-46
2023/07/13 06:13:06;;;;;;;;;4.33;3.00;;;;;21.50;47.09;101624.06;5021852;28;71595;-49
2023/07/13 06:15:31;;;;;;;;;5.00;1.67;;;;;21.61;47.31;101613.22;5005001;28;45963;-46
2023/07/13 06:17:57;;;;;;;;;4.67;2.33;;;;;21.68;46.56;101615.41;5022276;28;55769;-47
2023/07/13 06:20:22;;;;;;;;;2.67;2.00;;;;;21.62;47.15;101622.22;5021252;28;71635;-46
2023/07/13 06:22:47;;;;;;;;;3.67;1.33;;;;;21.61;47.19;101626.75;5022462;28;45435;-46
2023/07/13 06:25:13;;;;;;;;;1.33;1.00;;;;;21.63;47.06;101621.22;5021601;28;69276;-46
2023/07/13 06:27:38;;;;;;;;;2.00;2.00;;;;;21.66;47.15;101617.41;5021302;28;45387;-43
2023/07/13 06:30:04;;;;;;;;;2.00;2.00;;;;;21.69;47.14;101622.56;5020828;28;67876;-46
2023/07/13 06:32:29;;;;;;;;;4.33;2.00;;;;;21.72;46.91;101619.56;5022303;28;45485;-45
2023/07/13 06:34:55;;;;;;;;;6.00;3.33;;;;;21.75;46.81;101627.47;5021028;28;67248;-46
2023/07/13 06:37:20;;;;;;;;;3.00;2.00;;;;;21.76;47.12;101629.19;5022274;28;45543;-44
2023/07/13 06:39:45;;;;;;;;;1.00;1.00;;;;;21.81;46.72;101641.31;5021039;28;75148;-46
2023/07/13 06:42:11;;;;;;;;;2.00;2.00;;;;;21.80;46.61;101631.47;5020931;28;72976;-46
2023/07/13 06:44:36;;;;;;;;;3.67;3.00;;;;;21.84;46.96;101642.03;5021968;28;45399;-45
2023/07/13 06:47:01;;;;;;;;;3.67;3.00;;;;;22.03;46.90;101635.91;5022264;28;45530;-45
2023/07/13 06:49:27;;;;;;;;;4.33;2.00;;;;;22.07;47.01;101640.97;5019393;28;72248;-46
2023/07/13 06:51:52;;;;;;;;;0.67;0.00;;;;;22.12;46.33;101638.72;5021522;28;63243;-44
2023/07/13 06:54:17;;;;;;;;;4.00;3.00;;;;;22.04;46.44;101638.50;5021203;28;59927;-45
2023/07/13 06:56:43;;;;;;;;;1.00;1.00;;;;;21.95;46.66;101633.88;5022118;28;45407;-47
2023/07/13 06:59:08;;;;;;;;;2.00;2.00;;;;;21.92;46.69;101636.84;5021574;28;45961;-45
2023/07/13 07:01:34;;;;;;;;;4.00;2.00;;;;;21.97;46.62;101631.91;5021127;28;67851;-45
2023/07/13 07:03:59;;;;;;;;;2.33;1.33;;;;;22.06;46.89;101638.34;5003825;28;45346;-45
2023/07/13 07:06:25;;;;;;;;;2.67;2.00;;;;;22.14;47.30;101636.72;5020870;28;65208;-45
2023/07/13 07:08:51;;;;;;;;;2.00;2.00;;;;;22.25;46.53;101635.81;5021421;28;45676;-47
2023/07/13 07:11:22;;;;;;;;;2.00;2.00;;;;;22.34;46.92;101638.69;5021635;28;45502;-47
2023/07/13 07:13:48;;;;;;;;;3.33;1.00;;;;;22.42;46.67;101641.63;5020320;28;45436;-46
2023/07/13 07:16:13;;;;;;;;;3.33;1.67;;;;;22.45;46.52;101636.78;5021650;28;45384;-47
2023/07/13 07:18:39;;;;;;;;;1.67;1.67;;;;;22.60;46.72;101645.41;5020032;28;73947;-47
2023/07/13 07:21:04;;;;;;;;;1.00;1.00;;;;;22.73;46.23;101645.19;5020724;28;64117;-45
2023/07/13 07:23:30;;;;;;;;;1.67;1.67;;;;;22.79;46.02;101641.09;5021473;28;45316;-45
2023/07/13 07:25:55;;;;;;;;;2.00;2.00;;;;;22.80;46.25;101648.22;5020327;28;66572;-46
2023/07/13 07:28:20;;;;;;;;;5.00;2.00;;;;;22.79;45.74;101647.38;5020630;28;67137;-46
2023/07/13 07:30:46;;;;;;;;;2.00;1.67;;;;;22.80;46.23;101649.09;5021165;28;50970;-48
2023/07/13 07:33:12;;;;;;;;;2.00;2.00;;;;;22.89;45.91;101655.56;5021248;28;45422;-46
2023/07/13 07:35:37;;;;;;;;;3.00;3.00;;;;;23.16;45.83;101655.97;5018955;28;66412;-48
2023/07/13 07:38:03;;;;;;;;;4.67;2.00;;;;;24.11;45.31;101657.19;5020217;28;71248;-44
2023/07/13 07:40:28;;;;;;;;;2.33;2.00;;;;;25.69;43.91;101663.69;5021000;28;45512;-46
2023/07/13 07:42:54;;;;;;;;;2.67;2.33;;;;;27.98;41.79;101658.72;5018823;28;45379;-45
2023/07/13 07:45:19;;;;;;;;;5.33;3.00;;;;;30.67;38.24;101654.88;5020480;28;64579;-46
2023/07/13 07:47:45;;;;;;;;;1.67;1.00;;;;;33.15;35.19;101655.25;5019696;28;46312;-46
2023/07/13 07:50:10;;;;;;;;;2.67;2.00;;;;;35.24;31.55;101656.84;5019945;28;67768;-45
2023/07/13 07:52:36;;;;;;;;;4.00;2.00;;;;;36.83;30.06;101656.81;5021118;28;45390;-47
2023/07/13 07:55:03;;;;;;;;;5.00;3.25;;;;;38.26;28.18;101667.28;5018811;28;69492;-46
2023/07/13 07:57:28;;;;;;;;;3.75;2.00;;;;;39.40;26.73;101666.91;5020897;28;47182;-45
2023/07/13 07:59:54;;;;;;;;;1.50;1.50;;;;;40.30;25.10;101658.69;5021015;28;45388;-48
2023/07/13 08:02:19;;;;;;;;;1.75;1.25;;;;;41.34;23.79;101661.69;5019845;28;68319;-47
2023/07/13 08:04:44;;;;;;;;;3.00;1.25;;;;;42.05;21.93;101665.41;5020463;28;49026;-47
2023/07/13 08:07:10;;;;;;;;;0.25;0.00;;;;;41.71;23.09;101657.28;5019244;28;45947;-46
2023/07/13 08:09:35;;;;;;;;;1.50;1.00;;;;;41.25;22.35;101666.06;5020770;28;45378;-50
2023/07/13 08:12:00;;;;;;;;;1.25;1.00;;;;;42.34;21.87;101668.69;5020878;28;45373;-48
2023/07/13 08:14:26;;;;;;;;;1.00;1.00;;;;;43.24;21.65;101664.03;5021045;28;45474;-46
2023/07/13 08:16:51;;;;;;;;;0.50;0.50;;;;;43.57;20.53;101670.25;5020663;28;46030;-46
2023/07/13 08:19:16;;;;;;;;;0.00;0.00;;;;;44.23;19.29;101674.97;5019716;28;61135;-45
2023/07/13 08:21:43;;;;;;;;;1.00;0.00;;;;;44.79;19.37;101664.75;5018102;28;69017;-49
2023/07/13 08:24:08;;;;;;;;;4.00;0.75;;;;;44.27;18.62;101669.66;5020472;28;45435;-47
2023/07/13 08:26:34;;;;;;;;;1.00;0.00;;;;;43.42;18.58;101671.91;5020162;28;45424;-46
2023/07/13 08:28:59;;;;;;;;;0.00;0.00;;;;;43.37;19.31;101676.66;5020505;28;45344;-46
2023/07/13 08:31:25;;;;;;;;;0.50;0.50;;;;;43.61;18.28;101669.44;5020672;28;45402;-48
2023/07/13 08:33:50;;;;;;;;;1.00;1.00;;;;;43.40;18.65;101662.94;5018533;28;54801;-47
2023/07/13 08:36:15;;;;;;;;;2.25;1.00;;;;;42.84;18.64;101672.00;5019429;28;72625;-47
2023/07/13 08:38:40;;;;;;;;;1.00;1.00;;;;;42.45;18.46;101658.41;5020221;28;45486;-50
2023/07/13 08:41:12;;;;;;;;;0.75;0.00;;;;;41.95;18.82;101672.59;5019406;28;66306;-47
2023/07/13 08:43:37;;;;;;;;;0.00;0.00;;;;;40.07;19.20;101668.91;5020402;28;45363;-48
2023/07/13 08:46:21;;;;;;;;;1.00;1.00;;;;;37.92;20.41;101671.75;5018841;28;46308;-49
2023/07/13 08:48:49;;;;;;;;;1.50;1.50;;;;;36.69;21.92;101672.75;5019931;28;45313;-48
2023/07/13 08:51:46;;;;;;;;;0.00;0.00;;;;;35.68;22.90;101668.06;5020198;28;45331;-51
2023/07/13 08:54:35;;;;;;;;;0.00;0.00;;;;;34.01;23.71;101672.19;5018632;28;46260;-47
2023/07/13 08:57:03;;;;;;;;;0.00;0.00;;;;;32.71;25.36;101670.28;5008426;28;45450;-48
2023/07/13 08:59:31;;;;;;;;;2.50;1.25;;;;;31.78;25.89;101676.72;5019927;28;45451;-49
2023/07/13 09:02:34;;;;;;;;;0.25;0.25;;;;;30.94;27.00;101682.72;5018933;28;45380;-48
2023/07/13 09:05:01;;;;;;;;;2.25;0.00;;;;;31.44;27.74;101675.50;5019819;28;45480;-47
2023/07/13 09:07:45;;;;;;;;;0.25;0.25;;;;;32.50;26.50;101668.44;5018375;28;46196;-47
2023/07/13 09:10:20;;;;;;;;;1.25;0.00;;;;;33.94;25.32;101674.97;5018845;28;45281;-49
2023/07/13 09:12:55;;;;;;;;;0.50;0.00;;;;;35.16;23.89;101668.13;5015294;28;45372;-47
2023/07/13 09:15:37;;;;;;;;;0.00;0.00;;;;;34.71;23.64;101668.94;5013933;28;45402;-50
2023/07/13 09:18:22;;;;;;;;;0.00;0.00;;;;;33.33;24.32;101669.53;4998551;28;47404;-49
2023/07/13 09:20:54;;;;;;;;;0.75;0.75;;;;;31.74;25.07;101669.94;5016498;28;45780;-46
2023/07/13 09:23:23;;;;;;;;;2.00;2.00;;;;;30.65;26.65;101676.16;4998718;28;45195;-49
2023/07/13 09:25:54;;;;;;;;;0.00;0.00;;;;;29.86;27.75;101683.72;5006727;28;45378;-48
2023/07/13 09:28:24;;;;;;;;;1.00;1.00;;;;;29.21;28.79;101684.97;5018216;28;47027;-46
2023/07/13 09:31:01;;;;;;;;;0.50;0.50;;;;;28.57;28.85;101682.28;5019526;28;45423;-47
2023/07/13 09:33:29;;;;;;;;;1.50;0.00;;;;;27.99;30.08;101682.28;5019439;28;45436;-45
2023/07/13 09:35:57;;;;;;;;;0.00;0.00;;;;;27.55;30.91;101684.28;5019696;28;45356;-46
2023/07/13 09:38:25;;;;;;;;;2.00;0.50;;;;;27.19;31.35;101684.50;5019200;28;46248;-48
2023/07/13 09:41:25;;;;;;;;;4.00;1.00;;;;;26.82;32.11;101684.88;5018155;28;45401;-50
2023/07/13 09:44:17;;;;;;;;;3.00;3.00;;;;;26.49;32.61;101679.16;5019636;28;45444;-48
2023/07/13 09:46:52;;;;;;;;;1.75;1.75;;;;;26.22;33.12;101686.50;5019509;28;45360;-47
2023/07/13 09:49:18;;;;;;;;;3.00;1.75;;;;;25.99;33.52;101695.13;5018899;28;46093;-46
2023/07/13 09:51:44;;;;;;;;;1.25;1.25;;;;;25.84;33.52;101699.41;5018238;28;73528;-47
2023/07/13 09:54:20;;;;;;;;;1.50;1.25;;;;;25.70;34.56;101700.81;5019411;28;45440;-47
2023/07/13 09:56:46;;;;;;;;;1.50;1.50;;;;;25.71;34.41;101699.81;5007264;28;45439;-47
2023/07/13 09:59:33;;;;;;;;;1.00;1.00;;;;;25.67;34.41;101695.66;5019142;28;46102;-48
2023/07/13 10:01:58;;;;;;;;;2.00;2.00;;;;;25.66;34.73;101697.53;5019370;28;45324;-47
2023/07/13 10:04:34;;;;;;;;;1.00;1.00;;;;;25.72;34.37;101712.41;5018432;28;62800;-47
2023/07/13 10:07:07;;;;;;;;;4.67;1.00;;;;;25.80;34.15;101703.47;5021195;28;45391;-46
2023/07/13 10:09:33;;;;;;;;;3.33;2.00;;;;;25.87;34.34;101715.47;5022628;28;46366;-45
2023/07/13 10:11:58;;;;;;;;;2.00;2.00;;;;;25.82;35.01;101694.13;5021840;28;65839;-46
2023/07/13 10:14:25;;;;;;;;;2.00;2.00;;;;;25.81;34.48;101703.28;5021640;28;67714;-50
2023/07/13 10:16:55;;;;;;;;;2.67;2.67;;;;;25.80;34.38;101712.50;5021595;28;45498;-48
2023/07/13 10:19:27;;;;;;;;;1.00;1.00;;;;;25.68;34.95;101708.28;5022230;28;45378;-49
2023/07/13 10:22:13;;;;;;;;;3.75;2.00;;;;;25.52;35.13;101717.13;5021127;28;45291;-45
2023/07/13 10:24:39;;;;;;;;;2.00;1.00;;;;;25.36;35.47;101715.94;5021429;28;45375;-48
2023/07/13 10:27:25;;;;;;;;;2.50;2.50;;;;;25.20;35.87;101715.69;5022009;28;49633;-45
2023/07/13 10:30:01;;;;;;;;;1.67;1.00;;;;;25.02;36.04;101715.66;5022190;28;47084;-47
2023/07/13 10:32:26;;;;;;;;;2.00;2.00;;;;;24.92;36.10;101713.81;5021151;28;45361;-45
2023/07/13 10:34:52;;;;;;;;;2.00;2.00;;;;;24.90;36.45;101726.72;5021877;28;45779;-46
2023/07/13 10:37:30;;;;;;;;;1.25;1.00;;;;;24.92;36.69;101715.69;5022462;28;45440;-50
2023/07/13 10:39:57;;;;;;;;;1.50;1.50;;;;;24.93;36.51;101717.41;5022033;28;46200;-48
2023/07/13 10:42:41;;;;;;;;;1.00;1.00;;;;;25.05;36.87;101728.97;5020826;28;45317;-50
2023/07/13 10:45:19;;;;;;;;;4.00;4.00;;;;;25.18;36.85;101726.75;5020954;28;45464;-46
2023/07/13 10:47:45;;;;;;;;;3.33;3.33;;;;;25.34;36.67;101723.34;5020712;28;45761;-46
2023/07/13 10:50:20;;;;;;;;;2.00;2.00;;;;;25.41;36.12;101723.66;5020588;28;46280;-48
2023/07/13 10:52:46;;;;;;;;;4.67;4.67;;;;;25.50;36.16;101727.31;5020686;28;45678;-45
2023/07/13 10:55:40;;;;;;;;;3.00;1.75;;;;;25.51;35.90;101726.31;5021865;28;45406;-46
2023/07/13 10:58:20;;;;;;;;;3.00;3.00;;;;;25.31;36.04;101720.94;5020575;28;45449;-44
2023/07/13 11:00:49;;;;;;;;;4.00;2.00;;;;;25.15;36.48;101731.63;5021573;28;46323;-45
2023/07/13 11:03:17;;;;;;;;;1.33;1.33;;;;;25.07;36.59;101730.53;5020548;28;45238;-47
2023/07/13 11:05:43;;;;;;;;;2.67;0.00;;;;;24.97;37.04;101728.84;5020483;28;45474;-45
2023/07/13 11:08:33;;;;;;;;;2.00;2.00;;;;;24.93;36.76;101726.41;5020433;28;45443;-47
2023/07/13 11:10:58;;;;;;;;;1.67;1.67;;;;;24.97;37.16;101724.25;5020256;28;45418;-46
2023/07/13 11:13:47;;;;;;;;;2.00;2.00;;;;;25.07;37.19;101721.47;5020854;28;64801;-46
2023/07/13 11:16:15;;;;;;;;;2.00;2.00;;;;;25.30;37.05;101723.81;5021493;28;45474;-46
2023/07/13 11:18:44;;;;;;;;;6.67;1.00;;;;;25.66;36.23;101719.34;5020149;28;45451;-49
2023/07/13 11:21:15;;;;;;;;;2.00;2.00;;;;;26.13;36.55;101704.66;5021352;28;45290;-47
2023/07/13 11:23:47;;;;;;;;;2.50;2.50;;;;;26.61;35.56;101709.75;5021555;28;45407;-45
2023/07/13 11:26:41;;;;;;;;;1.00;1.00;;;;;26.99;34.63;101711.22;5020276;28;45345;-51